ADDS METAR Data INFO
IDs: Format: Raw Decoded Include TAF

Data at: 0042 UTC 22 Oct 2017

KLHX 212353Z AUTO 03007KT 10SM CLR 14/M12 A3006 RMK AO2 SLP145 T01391122 10189 20139 53018 TSNO
KLHX 212253Z AUTO 02012KT 10SM CLR 17/M13 A3003 RMK AO2 SLP127 T01721133 TSNO
KLHX 212153Z AUTO 01012G19KT 10SM CLR 18/M13 A3001 RMK AO2 SLP121 T01781128 TSNO
KLHX 212053Z AUTO 34014G23KT 10SM FEW100 18/M11 A3000 RMK AO2 SLP116 T01831111 53003 TSNO
KLHX 211953Z AUTO 35010G27KT 10SM CLR 18/M10 A2999 RMK AO2 PK WND 33027/1947 SLP112 T01781100 TSNO
KLHX 211853Z AUTO 36013G19KT 10SM FEW095 17/M09 A2998 RMK AO2 SLP108 T01721089 TSNO
KLHX 211753Z AUTO 35012G17KT 10SM SCT110 17/M07 A2999 RMK AO2 SLP112 T01671067 10167 20094 51020 TSNO
KLHX 211653Z AUTO 36014G19KT 10SM BKN100 14/M07 A2997 RMK AO2 SLP108 T01441072 TSNO
KLHX 211553Z AUTO 03008KT 10SM BKN080 OVC095 12/M01 A2996 RMK AO2 SLP109 T01171011 TSNO
KLHX 211453Z AUTO 02010G20KT 10SM CLR 09/01 A2992 RMK AO2 PK WND 02029/1437 SLP099 T00940006 53057 TSNO
KLHX 211353Z AUTO 01016G22KT 10SM CLR 10/M01 A2986 RMK AO2 SLP075 T01001006 TSNO
KLHX 211253Z AUTO 03009KT 10SM CLR 11/01 A2979 RMK AO2 WSHFT 1147 SLP048 T01060011 TSNO
KLHX 211207Z AUTO 02009KT 10SM FEW120 12/02 A2974 RMK AO2 WSHFT 1147 T01220017 TSNO
KLHX 211153Z AUTO 34012KT 10SM BKN120 14/02 A2973 RMK AO2 SLP016 T01390022 10178 20133 53044 TSNO
KLHX 211053Z AUTO 28010G19KT 10SM CLR 16/02 A2967 RMK AO2 WSHFT 0944 SLP989 T01560017 TSNO
KLHX 211004Z AUTO 28011KT 10SM CLR 14/02 A2964 RMK AO2 WSHFT 0944 T01440017 TSNO
KLHX 210953Z AUTO 29018G26KT 10SM CLR 14/02 A2964 RMK AO2 PK WND 31026/0952 PRESRR SLP978 T01440017 TSNO
KLHX 210853Z AUTO 23011KT 10SM CLR 14/02 A2958 RMK AO2 SLP958 T01440022 53004 TSNO
KLHX 210753Z AUTO 23009KT 10SM CLR 16/01 A2957 RMK AO2 SLP953 T01560011 TSNO
KLHX 210653Z AUTO 20010KT 10SM CLR 18/01 A2956 RMK AO2 SLP949 T01780011 402890067 TSNO
KLHX 210553Z AUTO 22007KT 10SM CLR 17/01 A2957 RMK AO2 SLP953 T01670006 10244 20167 58002 TSNO
KLHX 210453Z AUTO 21011KT 10SM CLR 17/M02 A2957 RMK AO2 SLP956 T01721017 TSNO
KLHX 210353Z AUTO 21011KT 10SM CLR 18/M01 A2959 RMK AO2 SLP965 T01831011 TSNO
KLHX 210253Z AUTO 23013KT 10SM CLR 17/00 A2958 RMK AO2 SLP971 T01720000 53004 TSNO
KLHX 210153Z AUTO 21010KT 10SM CLR 18/01 A2956 RMK AO2 SLP975 T01830006 TSNO
KLHX 210053Z AUTO 24011G22KT 10SM CLR 20/01 A2957 RMK AO2 SLP973 T02000006 TSNO
KLHX 202353Z AUTO 24016KT 10SM CLR 24/M02 A2956 RMK AO2 SLP965 T02441017 10289 20244 56009 TSNO
KLHX 202253Z AUTO 21012KT 10SM CLR 27/M01 A2957 RMK AO2 SLP961 T02671011 TSNO
KLHX 202153Z AUTO 22016G22KT 10SM CLR 29/M02 A2958 RMK AO2 PK WND 25027/2100 SLP961 T02891017 TSNO
KLHX 202053Z AUTO 24020G25KT 10SM CLR 28/00 A2959 RMK AO2 PK WND 23030/2031 SLP966 T02830000 56029 TSNO
KLHX 201953Z AUTO 21016G28KT 10SM CLR 28/01 A2960 RMK AO2 PK WND 21028/1953 PRESFR SLP964 T02830011 TSNO
KLHX 201853Z AUTO 24008G17KT 10SM CLR 27/02 A2966 RMK AO2 SLP987 T02720017 TSNO
KLHX 201753Z AUTO 29009KT 10SM CLR 26/03 A2969 RMK AO2 SLP999 T02610028 10261 20067 58024 TSNO
KLHX 201653Z AUTO 27008KT 10SM CLR 24/04 A2973 RMK AO2 SLP012 T02440044 TSNO
KLHX 201553Z AUTO 22010KT 10SM CLR 21/05 A2975 RMK AO2 SLP022 T02060050 TSNO
KLHX 201453Z AUTO 29004KT 10SM CLR 15/04 A2977 RMK AO2 SLP037 T01500044 55004 TSNO
KLHX 201353Z AUTO 27006KT 10SM CLR 08/02 A2976 RMK AO2 SLP045 T00830022 TSNO
KLHX 201253Z AUTO 28007KT 10SM CLR 07/02 A2977 RMK AO2 SLP048 T00720022 TSNO